Weather at George Best Belfast City Airport

Public forecast

Using degrees Celsius for public forecast. Weather courtesy of forecast.io.

Current aviation weather report (METAR) for George Best Belfast City Airport

Retrieved 2020/11/26 00:20 UTC (0 seconds ago):

EGAC 260020Z AUTO 21004KT 6000 FEW041/// 06/05 Q1018

Closest aviation forecast (TAF) to George Best Belfast City Airport

Closest forecast is Belfast International Airport, 12.2 nm (22.5 km) WNW. Retrieved 2020-11-26 00:00 UTC (20 minutes ago):

TAF EGAA 252256Z 2600/2624 23005KT 9999 FEW020 TEMPO 2600/2616 3000 BR PROB40 2600/2616 0200 FG BKN001 BECMG 2616/2620 0200 FG BKN000